sensor_id;sensor_type;location;lat;lon;timestamp;P1;durP1;ratioP1;P2;durP2;ratioP2
5702;SDS011;2876;51.738;10.050;2023-02-18T00:04:13;5.33;;;1.73;;
5702;SDS011;2876;51.738;10.050;2023-02-18T00:10:15;6.47;;;1.90;;
5702;SDS011;2876;51.738;10.050;2023-02-18T00:16:17;8.63;;;1.53;;
5702;SDS011;2876;51.738;10.050;2023-02-18T00:22:20;12.63;;;1.90;;
5702;SDS011;2876;51.738;10.050;2023-02-18T00:28:21;5.60;;;1.83;;
5702;SDS011;2876;51.738;10.050;2023-02-18T00:34:23;6.87;;;2.33;;
5702;SDS011;2876;51.738;10.050;2023-02-18T00:40:25;7.03;;;2.17;;
5702;SDS011;2876;51.738;10.050;2023-02-18T00:46:27;8.30;;;2.17;;
5702;SDS011;2876;51.738;10.050;2023-02-18T00:52:30;5.20;;;1.43;;
5702;SDS011;2876;51.738;10.050;2023-02-18T00:58:32;13.00;;;2.43;;
5702;SDS011;2876;51.738;10.050;2023-02-18T01:04:35;14.47;;;1.70;;
5702;SDS011;2876;51.738;10.050;2023-02-18T01:10:40;8.03;;;2.07;;
5702;SDS011;2876;51.738;10.050;2023-02-18T01:16:44;6.60;;;2.30;;
5702;SDS011;2876;51.738;10.050;2023-02-18T01:22:46;8.80;;;1.60;;
5702;SDS011;2876;51.738;10.050;2023-02-18T01:28:48;9.23;;;1.80;;
5702;SDS011;2876;51.738;10.050;2023-02-18T01:34:50;8.20;;;2.40;;
5702;SDS011;2876;51.738;10.050;2023-02-18T01:40:52;6.00;;;2.40;;
5702;SDS011;2876;51.738;10.050;2023-02-18T01:46:55;9.40;;;3.10;;
5702;SDS011;2876;51.738;10.050;2023-02-18T01:52:57;8.93;;;2.60;;
5702;SDS011;2876;51.738;10.050;2023-02-18T01:59:00;10.50;;;3.10;;
5702;SDS011;2876;51.738;10.050;2023-02-18T02:05:07;18.57;;;2.93;;
5702;SDS011;2876;51.738;10.050;2023-02-18T02:31:07;9.13;;;2.93;;
5702;SDS011;2876;51.738;10.050;2023-02-18T02:37:41;8.20;;;2.90;;
5702;SDS011;2876;51.738;10.050;2023-02-18T02:50:26;9.40;;;2.80;;
5702;SDS011;2876;51.738;10.050;2023-02-18T02:56:43;6.93;;;2.40;;
5702;SDS011;2876;51.738;10.050;2023-02-18T03:16:44;8.60;;;4.50;;
5702;SDS011;2876;51.738;10.050;2023-02-18T03:22:53;11.87;;;4.97;;
5702;SDS011;2876;51.738;10.050;2023-02-18T03:28:59;12.20;;;5.53;;
5702;SDS011;2876;51.738;10.050;2023-02-18T03:35:14;13.87;;;6.30;;
5702;SDS011;2876;51.738;10.050;2023-02-18T03:41:20;11.70;;;6.70;;
5702;SDS011;2876;51.738;10.050;2023-02-18T03:47:23;11.03;;;6.47;;
5702;SDS011;2876;51.738;10.050;2023-02-18T03:53:25;18.17;;;6.77;;
5702;SDS011;2876;51.738;10.050;2023-02-18T03:59:27;16.30;;;7.63;;
5702;SDS011;2876;51.738;10.050;2023-02-18T04:05:29;18.67;;;7.57;;
5702;SDS011;2876;51.738;10.050;2023-02-18T04:11:31;14.80;;;6.87;;
5702;SDS011;2876;51.738;10.050;2023-02-18T04:17:33;17.90;;;8.53;;
5702;SDS011;2876;51.738;10.050;2023-02-18T04:23:35;17.63;;;8.90;;
5702;SDS011;2876;51.738;10.050;2023-02-18T04:29:37;13.50;;;8.67;;
5702;SDS011;2876;51.738;10.050;2023-02-18T04:35:40;15.30;;;9.37;;
5702;SDS011;2876;51.738;10.050;2023-02-18T04:41:42;18.93;;;9.70;;
5702;SDS011;2876;51.738;10.050;2023-02-18T04:47:44;22.10;;;10.30;;
5702;SDS011;2876;51.738;10.050;2023-02-18T04:53:46;18.27;;;10.30;;
5702;SDS011;2876;51.738;10.050;2023-02-18T04:59:48;18.40;;;10.17;;
5702;SDS011;2876;51.738;10.050;2023-02-18T05:05:49;19.80;;;11.00;;
5702;SDS011;2876;51.738;10.050;2023-02-18T05:11:51;22.07;;;11.77;;
5702;SDS011;2876;51.738;10.050;2023-02-18T05:17:53;21.53;;;11.97;;
5702;SDS011;2876;51.738;10.050;2023-02-18T05:23:55;24.77;;;13.80;;
5702;SDS011;2876;51.738;10.050;2023-02-18T05:29:57;31.30;;;13.50;;
5702;SDS011;2876;51.738;10.050;2023-02-18T05:35:59;27.40;;;13.20;;
5702;SDS011;2876;51.738;10.050;2023-02-18T05:42:01;24.43;;;14.37;;
5702;SDS011;2876;51.738;10.050;2023-02-18T05:48:03;18.97;;;11.53;;
5702;SDS011;2876;51.738;10.050;2023-02-18T05:54:05;20.30;;;10.00;;
5702;SDS011;2876;51.738;10.050;2023-02-18T06:00:07;15.90;;;11.20;;
5702;SDS011;2876;51.738;10.050;2023-02-18T06:06:10;12.60;;;8.03;;
5702;SDS011;2876;51.738;10.050;2023-02-18T06:12:12;17.80;;;10.40;;
5702;SDS011;2876;51.738;10.050;2023-02-18T06:18:14;13.40;;;8.97;;
5702;SDS011;2876;51.738;10.050;2023-02-18T06:24:16;12.90;;;9.30;;
5702;SDS011;2876;51.738;10.050;2023-02-18T06:30:18;12.97;;;8.53;;
5702;SDS011;2876;51.738;10.050;2023-02-18T06:36:20;11.63;;;7.87;;
5702;SDS011;2876;51.738;10.050;2023-02-18T06:42:22;13.77;;;8.30;;
5702;SDS011;2876;51.738;10.050;2023-02-18T06:48:24;10.60;;;7.63;;
5702;SDS011;2876;51.738;10.050;2023-02-18T06:54:26;11.60;;;7.47;;
5702;SDS011;2876;51.738;10.050;2023-02-18T07:00:28;10.40;;;7.57;;
5702;SDS011;2876;51.738;10.050;2023-02-18T07:06:30;11.30;;;7.17;;
5702;SDS011;2876;51.738;10.050;2023-02-18T07:12:32;12.93;;;7.30;;
5702;SDS011;2876;51.738;10.050;2023-02-18T07:18:34;10.03;;;6.10;;
5702;SDS011;2876;51.738;10.050;2023-02-18T07:24:36;10.63;;;6.60;;
5702;SDS011;2876;51.738;10.050;2023-02-18T07:30:38;9.57;;;6.20;;
5702;SDS011;2876;51.738;10.050;2023-02-18T07:36:40;9.80;;;6.10;;
5702;SDS011;2876;51.738;10.050;2023-02-18T07:42:42;6.63;;;5.10;;
5702;SDS011;2876;51.738;10.050;2023-02-18T07:48:44;8.10;;;5.83;;
5702;SDS011;2876;51.738;10.050;2023-02-18T07:54:46;8.53;;;5.50;;
5702;SDS011;2876;51.738;10.050;2023-02-18T08:00:48;8.70;;;5.80;;
5702;SDS011;2876;51.738;10.050;2023-02-18T08:06:50;7.80;;;6.20;;
5702;SDS011;2876;51.738;10.050;2023-02-18T08:12:52;8.23;;;6.43;;
5702;SDS011;2876;51.738;10.050;2023-02-18T08:18:54;8.53;;;5.90;;
5702;SDS011;2876;51.738;10.050;2023-02-18T08:24:57;5.30;;;4.30;;
5702;SDS011;2876;51.738;10.050;2023-02-18T08:30:59;3.67;;;3.33;;
5702;SDS011;2876;51.738;10.050;2023-02-18T08:37:01;2.90;;;2.70;;
5702;SDS011;2876;51.738;10.050;2023-02-18T08:43:03;8.63;;;2.90;;
5702;SDS011;2876;51.738;10.050;2023-02-18T08:49:05;5.23;;;2.80;;
5702;SDS011;2876;51.738;10.050;2023-02-18T08:55:07;3.10;;;2.40;;
5702;SDS011;2876;51.738;10.050;2023-02-18T09:01:10;1.73;;;1.63;;
5702;SDS011;2876;51.738;10.050;2023-02-18T09:07:13;2.43;;;1.40;;
5702;SDS011;2876;51.738;10.050;2023-02-18T09:13:15;1.83;;;1.00;;
5702;SDS011;2876;51.738;10.050;2023-02-18T09:19:17;1.27;;;1.10;;
5702;SDS011;2876;51.738;10.050;2023-02-18T09:25:19;1.20;;;0.93;;
5702;SDS011;2876;51.738;10.050;2023-02-18T09:31:22;1.30;;;1.20;;
5702;SDS011;2876;51.738;10.050;2023-02-18T09:37:26;0.90;;;0.90;;
5702;SDS011;2876;51.738;10.050;2023-02-18T09:43:30;0.90;;;0.90;;
5702;SDS011;2876;51.738;10.050;2023-02-18T09:49:43;1.50;;;1.40;;
5702;SDS011;2876;51.738;10.050;2023-02-18T09:55:57;2.30;;;0.70;;
5702;SDS011;2876;51.738;10.050;2023-02-18T10:02:01;0.87;;;0.87;;
5702;SDS011;2876;51.738;10.050;2023-02-18T10:08:04;0.70;;;0.70;;
5702;SDS011;2876;51.738;10.050;2023-02-18T10:14:17;0.90;;;0.90;;
5702;SDS011;2876;51.738;10.050;2023-02-18T10:20:20;0.80;;;0.70;;
5702;SDS011;2876;51.738;10.050;2023-02-18T10:26:28;5.30;;;0.90;;
5702;SDS011;2876;51.738;10.050;2023-02-18T10:32:35;0.80;;;0.80;;
5702;SDS011;2876;51.738;10.050;2023-02-18T10:51:39;0.80;;;0.80;;
5702;SDS011;2876;51.738;10.050;2023-02-18T10:57:51;1.00;;;0.90;;
5702;SDS011;2876;51.738;10.050;2023-02-18T11:10:37;1.17;;;1.07;;
5702;SDS011;2876;51.738;10.050;2023-02-18T11:16:45;1.43;;;0.93;;
5702;SDS011;2876;51.738;10.050;2023-02-18T11:22:47;1.10;;;1.00;;
5702;SDS011;2876;51.738;10.050;2023-02-18T11:28:51;1.93;;;1.50;;
5702;SDS011;2876;51.738;10.050;2023-02-18T11:35:25;1.90;;;1.40;;
5702;SDS011;2876;51.738;10.050;2023-02-18T11:47:41;0.80;;;0.73;;
5702;SDS011;2876;51.738;10.050;2023-02-18T11:54:43;1.40;;;1.30;;
5702;SDS011;2876;51.738;10.050;2023-02-18T12:13:35;1.20;;;1.10;;
5702;SDS011;2876;51.738;10.050;2023-02-18T13:12:47;1.90;;;1.10;;
5702;SDS011;2876;51.738;10.050;2023-02-18T13:25:43;1.53;;;1.20;;
5702;SDS011;2876;51.738;10.050;2023-02-18T13:51:04;1.10;;;1.00;;
5702;SDS011;2876;51.738;10.050;2023-02-18T13:57:20;3.27;;;1.70;;
5702;SDS011;2876;51.738;10.050;2023-02-18T14:09:34;0.97;;;0.97;;
5702;SDS011;2876;51.738;10.050;2023-02-18T14:15:55;2.73;;;0.90;;
5702;SDS011;2876;51.738;10.050;2023-02-18T14:48:05;1.60;;;1.50;;
5702;SDS011;2876;51.738;10.050;2023-02-18T14:54:18;1.77;;;1.60;;
5702;SDS011;2876;51.738;10.050;2023-02-18T15:00:25;2.80;;;1.73;;
5702;SDS011;2876;51.738;10.050;2023-02-18T15:06:36;1.80;;;1.47;;
5702;SDS011;2876;51.738;10.050;2023-02-18T15:12:39;3.17;;;2.20;;
5702;SDS011;2876;51.738;10.050;2023-02-18T15:18:43;1.73;;;1.63;;
5702;SDS011;2876;51.738;10.050;2023-02-18T15:24:54;3.70;;;2.50;;
5702;SDS011;2876;51.738;10.050;2023-02-18T15:30:57;2.80;;;2.60;;
5702;SDS011;2876;51.738;10.050;2023-02-18T15:37:04;2.97;;;2.47;;
5702;SDS011;2876;51.738;10.050;2023-02-18T15:43:15;5.13;;;3.13;;
5702;SDS011;2876;51.738;10.050;2023-02-18T15:49:22;4.27;;;2.80;;
5702;SDS011;2876;51.738;10.050;2023-02-18T15:55:38;7.10;;;4.23;;
5702;SDS011;2876;51.738;10.050;2023-02-18T16:01:42;7.53;;;3.50;;
5702;SDS011;2876;51.738;10.050;2023-02-18T16:07:58;8.53;;;5.00;;
5702;SDS011;2876;51.738;10.050;2023-02-18T16:14:27;3.00;;;2.63;;
5702;SDS011;2876;51.738;10.050;2023-02-18T16:20:51;6.40;;;4.03;;
5702;SDS011;2876;51.738;10.050;2023-02-18T16:26:58;3.57;;;3.00;;
5702;SDS011;2876;51.738;10.050;2023-02-18T16:33:01;6.03;;;3.20;;
5702;SDS011;2876;51.738;10.050;2023-02-18T16:39:04;3.77;;;2.63;;
5702;SDS011;2876;51.738;10.050;2023-02-18T16:45:07;4.50;;;2.47;;
5702;SDS011;2876;51.738;10.050;2023-02-18T16:57:16;4.00;;;2.63;;
5702;SDS011;2876;51.738;10.050;2023-02-18T17:03:18;2.17;;;1.77;;
5702;SDS011;2876;51.738;10.050;2023-02-18T17:09:21;4.47;;;3.30;;
5702;SDS011;2876;51.738;10.050;2023-02-18T17:15:29;4.70;;;3.57;;
5702;SDS011;2876;51.738;10.050;2023-02-18T17:21:35;3.03;;;2.70;;
5702;SDS011;2876;51.738;10.050;2023-02-18T17:27:37;2.30;;;2.00;;
5702;SDS011;2876;51.738;10.050;2023-02-18T17:33:39;7.23;;;3.07;;
5702;SDS011;2876;51.738;10.050;2023-02-18T17:39:42;5.23;;;3.40;;
5702;SDS011;2876;51.738;10.050;2023-02-18T17:45:48;3.43;;;2.43;;
5702;SDS011;2876;51.738;10.050;2023-02-18T17:51:54;4.23;;;3.30;;
5702;SDS011;2876;51.738;10.050;2023-02-18T17:57:58;5.23;;;3.80;;
5702;SDS011;2876;51.738;10.050;2023-02-18T18:04:00;4.30;;;3.37;;
5702;SDS011;2876;51.738;10.050;2023-02-18T18:10:02;5.20;;;3.67;;
5702;SDS011;2876;51.738;10.050;2023-02-18T18:16:04;6.00;;;4.30;;
5702;SDS011;2876;51.738;10.050;2023-02-18T18:22:06;12.13;;;4.60;;
5702;SDS011;2876;51.738;10.050;2023-02-18T18:28:09;5.60;;;4.13;;
5702;SDS011;2876;51.738;10.050;2023-02-18T18:34:12;8.70;;;4.90;;
5702;SDS011;2876;51.738;10.050;2023-02-18T18:40:19;4.53;;;4.03;;
5702;SDS011;2876;51.738;10.050;2023-02-18T18:46:23;6.40;;;4.20;;
5702;SDS011;2876;51.738;10.050;2023-02-18T18:52:25;6.90;;;5.27;;
5702;SDS011;2876;51.738;10.050;2023-02-18T18:58:27;9.07;;;5.43;;
5702;SDS011;2876;51.738;10.050;2023-02-18T19:04:29;19.43;;;8.27;;
5702;SDS011;2876;51.738;10.050;2023-02-18T19:10:33;14.07;;;7.90;;
5702;SDS011;2876;51.738;10.050;2023-02-18T19:16:44;9.00;;;6.33;;
5702;SDS011;2876;51.738;10.050;2023-02-18T19:22:46;8.73;;;4.50;;
5702;SDS011;2876;51.738;10.050;2023-02-18T19:28:48;6.20;;;5.17;;
5702;SDS011;2876;51.738;10.050;2023-02-18T19:34:50;7.20;;;4.13;;
5702;SDS011;2876;51.738;10.050;2023-02-18T19:40:52;6.70;;;4.30;;
5702;SDS011;2876;51.738;10.050;2023-02-18T19:46:55;4.43;;;3.20;;
5702;SDS011;2876;51.738;10.050;2023-02-18T19:52:59;5.00;;;3.57;;
5702;SDS011;2876;51.738;10.050;2023-02-18T19:59:01;8.30;;;4.33;;
5702;SDS011;2876;51.738;10.050;2023-02-18T20:05:04;10.27;;;3.90;;
5702;SDS011;2876;51.738;10.050;2023-02-18T20:11:06;4.87;;;3.27;;
5702;SDS011;2876;51.738;10.050;2023-02-18T20:17:09;6.30;;;3.60;;
5702;SDS011;2876;51.738;10.050;2023-02-18T20:23:11;5.03;;;3.50;;
5702;SDS011;2876;51.738;10.050;2023-02-18T20:29:13;4.93;;;3.50;;
5702;SDS011;2876;51.738;10.050;2023-02-18T20:35:15;11.13;;;4.43;;
5702;SDS011;2876;51.738;10.050;2023-02-18T20:41:17;12.40;;;5.10;;
5702;SDS011;2876;51.738;10.050;2023-02-18T20:47:22;4.40;;;4.00;;
5702;SDS011;2876;51.738;10.050;2023-02-18T20:53:24;8.63;;;4.47;;
5702;SDS011;2876;51.738;10.050;2023-02-18T20:59:29;7.27;;;4.50;;
5702;SDS011;2876;51.738;10.050;2023-02-18T21:05:33;9.33;;;4.47;;
5702;SDS011;2876;51.738;10.050;2023-02-18T21:11:35;8.70;;;4.63;;
5702;SDS011;2876;51.738;10.050;2023-02-18T21:17:37;6.10;;;4.60;;
5702;SDS011;2876;51.738;10.050;2023-02-18T21:23:39;8.53;;;4.70;;
5702;SDS011;2876;51.738;10.050;2023-02-18T21:29:41;7.23;;;5.00;;
5702;SDS011;2876;51.738;10.050;2023-02-18T21:35:43;9.00;;;4.60;;
5702;SDS011;2876;51.738;10.050;2023-02-18T21:41:45;12.87;;;5.67;;
5702;SDS011;2876;51.738;10.050;2023-02-18T21:47:47;7.13;;;3.83;;
5702;SDS011;2876;51.738;10.050;2023-02-18T21:53:49;5.70;;;4.57;;
5702;SDS011;2876;51.738;10.050;2023-02-18T21:59:51;5.30;;;3.30;;
5702;SDS011;2876;51.738;10.050;2023-02-18T22:05:53;6.53;;;4.53;;
5702;SDS011;2876;51.738;10.050;2023-02-18T22:11:55;6.70;;;4.37;;
5702;SDS011;2876;51.738;10.050;2023-02-18T22:17:57;8.37;;;4.20;;
5702;SDS011;2876;51.738;10.050;2023-02-18T22:23:59;7.63;;;4.47;;
5702;SDS011;2876;51.738;10.050;2023-02-18T22:30:01;9.63;;;4.60;;
5702;SDS011;2876;51.738;10.050;2023-02-18T22:36:05;13.73;;;5.97;;
5702;SDS011;2876;51.738;10.050;2023-02-18T22:42:07;11.90;;;5.13;;
5702;SDS011;2876;51.738;10.050;2023-02-18T22:48:09;14.60;;;6.43;;
5702;SDS011;2876;51.738;10.050;2023-02-18T22:54:12;9.77;;;5.80;;
5702;SDS011;2876;51.738;10.050;2023-02-18T23:00:16;13.60;;;6.40;;
5702;SDS011;2876;51.738;10.050;2023-02-18T23:06:19;10.83;;;6.63;;
5702;SDS011;2876;51.738;10.050;2023-02-18T23:12:22;13.00;;;6.40;;
5702;SDS011;2876;51.738;10.050;2023-02-18T23:18:25;9.40;;;7.07;;
5702;SDS011;2876;51.738;10.050;2023-02-18T23:24:27;17.83;;;8.60;;
5702;SDS011;2876;51.738;10.050;2023-02-18T23:30:34;15.70;;;9.50;;
5702;SDS011;2876;51.738;10.050;2023-02-18T23:36:36;14.87;;;9.07;;
5702;SDS011;2876;51.738;10.050;2023-02-18T23:42:38;20.37;;;9.97;;
5702;SDS011;2876;51.738;10.050;2023-02-18T23:48:40;17.33;;;10.23;;
5702;SDS011;2876;51.738;10.050;2023-02-18T23:54:42;17.70;;;11.27;;
